sensor_id;sensor_type;location;lat;lon;timestamp;P1;durP1;ratioP1;P2;durP2;ratioP2
44116;SDS011;29781;49.480;8.512;2023-06-24T00:00:02;6.00;;;5.40;;
44116;SDS011;29781;49.480;8.512;2023-06-24T00:02:32;6.53;;;4.60;;
44116;SDS011;29781;49.480;8.512;2023-06-24T00:05:00;5.85;;;5.32;;
44116;SDS011;29781;49.480;8.512;2023-06-24T00:07:26;6.57;;;4.88;;
44116;SDS011;29781;49.480;8.512;2023-06-24T00:09:52;5.32;;;4.75;;
44116;SDS011;29781;49.480;8.512;2023-06-24T00:12:17;5.88;;;5.28;;
44116;SDS011;29781;49.480;8.512;2023-06-24T00:14:44;6.18;;;5.15;;
44116;SDS011;29781;49.480;8.512;2023-06-24T00:17:13;5.78;;;4.70;;
44116;SDS011;29781;49.480;8.512;2023-06-24T00:19:38;5.70;;;4.80;;
44116;SDS011;29781;49.480;8.512;2023-06-24T00:22:04;7.30;;;4.95;;
44116;SDS011;29781;49.480;8.512;2023-06-24T00:24:31;9.00;;;5.60;;
44116;SDS011;29781;49.480;8.512;2023-06-24T00:26:57;5.40;;;4.90;;
44116;SDS011;29781;49.480;8.512;2023-06-24T00:29:22;5.90;;;5.00;;
44116;SDS011;29781;49.480;8.512;2023-06-24T00:31:48;7.10;;;5.05;;
44116;SDS011;29781;49.480;8.512;2023-06-24T00:34:13;6.68;;;5.18;;
44116;SDS011;29781;49.480;8.512;2023-06-24T00:36:39;6.40;;;4.70;;
44116;SDS011;29781;49.480;8.512;2023-06-24T00:39:05;6.18;;;5.03;;
44116;SDS011;29781;49.480;8.512;2023-06-24T00:41:31;8.15;;;5.45;;
44116;SDS011;29781;49.480;8.512;2023-06-24T00:43:58;5.22;;;4.72;;
44116;SDS011;29781;49.480;8.512;2023-06-24T00:46:25;5.57;;;5.03;;
44116;SDS011;29781;49.480;8.512;2023-06-24T00:48:52;5.55;;;5.03;;
44116;SDS011;29781;49.480;8.512;2023-06-24T00:51:18;7.85;;;5.07;;
44116;SDS011;29781;49.480;8.512;2023-06-24T00:53:46;5.72;;;5.13;;
44116;SDS011;29781;49.480;8.512;2023-06-24T00:56:13;6.15;;;5.55;;
44116;SDS011;29781;49.480;8.512;2023-06-24T00:58:39;5.20;;;4.72;;
44116;SDS011;29781;49.480;8.512;2023-06-24T01:01:07;10.55;;;5.03;;
44116;SDS011;29781;49.480;8.512;2023-06-24T01:03:33;5.32;;;4.82;;
44116;SDS011;29781;49.480;8.512;2023-06-24T01:06:02;6.00;;;5.40;;
44116;SDS011;29781;49.480;8.512;2023-06-24T01:08:27;5.80;;;5.07;;
44116;SDS011;29781;49.480;8.512;2023-06-24T01:10:53;5.53;;;4.97;;
44116;SDS011;29781;49.480;8.512;2023-06-24T01:13:19;8.23;;;5.35;;
44116;SDS011;29781;49.480;8.512;2023-06-24T01:15:45;6.10;;;5.30;;
44116;SDS011;29781;49.480;8.512;2023-06-24T01:18:21;7.72;;;5.90;;
44116;SDS011;29781;49.480;8.512;2023-06-24T01:23:42;8.40;;;5.90;;
44116;SDS011;29781;49.480;8.512;2023-06-24T01:26:20;5.93;;;5.32;;
44116;SDS011;29781;49.480;8.512;2023-06-24T01:29:23;6.10;;;5.40;;
44116;SDS011;29781;49.480;8.512;2023-06-24T01:32:16;6.82;;;5.57;;
44116;SDS011;29781;49.480;8.512;2023-06-24T01:37:25;8.57;;;6.17;;
44116;SDS011;29781;49.480;8.512;2023-06-24T01:40:05;5.97;;;5.35;;
44116;SDS011;29781;49.480;8.512;2023-06-24T01:42:44;7.45;;;5.72;;
44116;SDS011;29781;49.480;8.512;2023-06-24T01:45:28;8.10;;;5.90;;
44116;SDS011;29781;49.480;8.512;2023-06-24T01:48:02;6.45;;;5.80;;
44116;SDS011;29781;49.480;8.512;2023-06-24T01:50:30;7.47;;;6.13;;
44116;SDS011;29781;49.480;8.512;2023-06-24T01:52:57;5.90;;;5.38;;
44116;SDS011;29781;49.480;8.512;2023-06-24T01:55:26;6.18;;;5.38;;
44116;SDS011;29781;49.480;8.512;2023-06-24T01:57:54;6.10;;;5.45;;
44116;SDS011;29781;49.480;8.512;2023-06-24T02:00:21;7.28;;;5.53;;
44116;SDS011;29781;49.480;8.512;2023-06-24T02:02:49;6.80;;;5.70;;
44116;SDS011;29781;49.480;8.512;2023-06-24T02:05:15;7.97;;;5.90;;
44116;SDS011;29781;49.480;8.512;2023-06-24T02:07:43;10.23;;;6.25;;
44116;SDS011;29781;49.480;8.512;2023-06-24T02:10:11;7.20;;;5.88;;
44116;SDS011;29781;49.480;8.512;2023-06-24T02:12:37;9.48;;;5.72;;
44116;SDS011;29781;49.480;8.512;2023-06-24T02:15:04;7.57;;;5.50;;
44116;SDS011;29781;49.480;8.512;2023-06-24T02:17:31;7.53;;;5.68;;
44116;SDS011;29781;49.480;8.512;2023-06-24T02:19:58;6.25;;;5.65;;
44116;SDS011;29781;49.480;8.512;2023-06-24T02:22:25;6.20;;;5.60;;
44116;SDS011;29781;49.480;8.512;2023-06-24T02:24:50;6.38;;;5.78;;
44116;SDS011;29781;49.480;8.512;2023-06-24T02:27:17;6.53;;;5.90;;
44116;SDS011;29781;49.480;8.512;2023-06-24T02:29:44;6.63;;;6.03;;
44116;SDS011;29781;49.480;8.512;2023-06-24T02:32:11;6.68;;;6.07;;
44116;SDS011;29781;49.480;8.512;2023-06-24T02:34:36;7.28;;;6.05;;
44116;SDS011;29781;49.480;8.512;2023-06-24T02:37:02;10.02;;;5.78;;
44116;SDS011;29781;49.480;8.512;2023-06-24T02:39:28;8.48;;;5.63;;
44116;SDS011;29781;49.480;8.512;2023-06-24T02:41:53;12.05;;;6.22;;
44116;SDS011;29781;49.480;8.512;2023-06-24T02:44:19;7.88;;;5.70;;
44116;SDS011;29781;49.480;8.512;2023-06-24T02:46:44;6.25;;;5.65;;
44116;SDS011;29781;49.480;8.512;2023-06-24T02:49:12;6.82;;;5.90;;
44116;SDS011;29781;49.480;8.512;2023-06-24T02:51:40;7.95;;;6.05;;
44116;SDS011;29781;49.480;8.512;2023-06-24T02:54:07;7.53;;;5.78;;
44116;SDS011;29781;49.480;8.512;2023-06-24T02:56:33;7.10;;;5.57;;
44116;SDS011;29781;49.480;8.512;2023-06-24T02:58:59;6.70;;;5.68;;
44116;SDS011;29781;49.480;8.512;2023-06-24T03:01:25;6.75;;;6.05;;
44116;SDS011;29781;49.480;8.512;2023-06-24T03:03:55;6.90;;;5.65;;
44116;SDS011;29781;49.480;8.512;2023-06-24T03:06:21;8.10;;;6.32;;
44116;SDS011;29781;49.480;8.512;2023-06-24T03:08:47;10.18;;;6.40;;
44116;SDS011;29781;49.480;8.512;2023-06-24T03:11:14;7.47;;;6.60;;
44116;SDS011;29781;49.480;8.512;2023-06-24T03:13:41;7.25;;;6.55;;
44116;SDS011;29781;49.480;8.512;2023-06-24T03:16:07;8.25;;;7.43;;
44116;SDS011;29781;49.480;8.512;2023-06-24T03:18:37;8.93;;;6.97;;
44116;SDS011;29781;49.480;8.512;2023-06-24T03:21:06;7.37;;;6.67;;
44116;SDS011;29781;49.480;8.512;2023-06-24T03:23:33;8.88;;;7.18;;
44116;SDS011;29781;49.480;8.512;2023-06-24T03:25:58;7.85;;;6.45;;
44116;SDS011;29781;49.480;8.512;2023-06-24T03:28:24;7.50;;;6.18;;
44116;SDS011;29781;49.480;8.512;2023-06-24T03:30:49;9.52;;;6.72;;
44116;SDS011;29781;49.480;8.512;2023-06-24T03:33:15;7.97;;;6.03;;
44116;SDS011;29781;49.480;8.512;2023-06-24T03:35:42;7.28;;;6.57;;
44116;SDS011;29781;49.480;8.512;2023-06-24T03:38:08;6.82;;;6.07;;
44116;SDS011;29781;49.480;8.512;2023-06-24T03:40:33;8.48;;;7.10;;
44116;SDS011;29781;49.480;8.512;2023-06-24T03:42:59;8.32;;;7.38;;
44116;SDS011;29781;49.480;8.512;2023-06-24T03:45:24;7.78;;;6.55;;
44116;SDS011;29781;49.480;8.512;2023-06-24T03:47:50;9.20;;;6.25;;
44116;SDS011;29781;49.480;8.512;2023-06-24T03:50:16;6.35;;;5.70;;
44116;SDS011;29781;49.480;8.512;2023-06-24T03:52:41;6.93;;;6.22;;
44116;SDS011;29781;49.480;8.512;2023-06-24T03:55:09;6.65;;;5.97;;
44116;SDS011;29781;49.480;8.512;2023-06-24T03:57:34;6.60;;;5.55;;
44116;SDS011;29781;49.480;8.512;2023-06-24T04:00:00;6.63;;;5.93;;
44116;SDS011;29781;49.480;8.512;2023-06-24T04:02:25;7.88;;;7.00;;
44116;SDS011;29781;49.480;8.512;2023-06-24T04:04:51;6.78;;;6.07;;
44116;SDS011;29781;49.480;8.512;2023-06-24T04:07:17;7.00;;;6.18;;
44116;SDS011;29781;49.480;8.512;2023-06-24T04:09:53;7.35;;;6.30;;
44116;SDS011;29781;49.480;8.512;2023-06-24T04:12:20;6.60;;;5.97;;
44116;SDS011;29781;49.480;8.512;2023-06-24T04:14:46;6.20;;;5.60;;
44116;SDS011;29781;49.480;8.512;2023-06-24T04:17:11;8.02;;;6.13;;
44116;SDS011;29781;49.480;8.512;2023-06-24T04:19:37;7.28;;;5.68;;
44116;SDS011;29781;49.480;8.512;2023-06-24T04:22:04;6.68;;;5.88;;
44116;SDS011;29781;49.480;8.512;2023-06-24T04:24:29;7.90;;;6.15;;
44116;SDS011;29781;49.480;8.512;2023-06-24T04:26:55;6.60;;;5.90;;
44116;SDS011;29781;49.480;8.512;2023-06-24T04:29:20;6.72;;;6.13;;
44116;SDS011;29781;49.480;8.512;2023-06-24T04:31:46;6.22;;;5.63;;
44116;SDS011;29781;49.480;8.512;2023-06-24T04:34:12;6.32;;;5.72;;
44116;SDS011;29781;49.480;8.512;2023-06-24T04:36:37;8.95;;;5.57;;
44116;SDS011;29781;49.480;8.512;2023-06-24T04:39:03;7.00;;;6.05;;
44116;SDS011;29781;49.480;8.512;2023-06-24T04:41:29;8.30;;;6.50;;
44116;SDS011;29781;49.480;8.512;2023-06-24T04:43:54;7.13;;;5.57;;
44116;SDS011;29781;49.480;8.512;2023-06-24T04:46:20;7.80;;;7.07;;
44116;SDS011;29781;49.480;8.512;2023-06-24T04:48:46;8.30;;;6.35;;
44116;SDS011;29781;49.480;8.512;2023-06-24T04:51:12;7.07;;;6.20;;
44116;SDS011;29781;49.480;8.512;2023-06-24T04:53:37;7.00;;;6.25;;
44116;SDS011;29781;49.480;8.512;2023-06-24T04:56:03;7.40;;;6.63;;
44116;SDS011;29781;49.480;8.512;2023-06-24T04:58:28;7.30;;;6.50;;
44116;SDS011;29781;49.480;8.512;2023-06-24T05:00:54;7.53;;;6.13;;
44116;SDS011;29781;49.480;8.512;2023-06-24T05:03:19;7.40;;;6.25;;
44116;SDS011;29781;49.480;8.512;2023-06-24T05:05:45;7.70;;;6.30;;
44116;SDS011;29781;49.480;8.512;2023-06-24T05:08:10;7.63;;;6.32;;
44116;SDS011;29781;49.480;8.512;2023-06-24T05:10:36;7.63;;;5.95;;
44116;SDS011;29781;49.480;8.512;2023-06-24T05:13:01;7.50;;;6.40;;
44116;SDS011;29781;49.480;8.512;2023-06-24T05:15:27;11.13;;;6.25;;
44116;SDS011;29781;49.480;8.512;2023-06-24T05:17:52;10.00;;;7.00;;
44116;SDS011;29781;49.480;8.512;2023-06-24T05:20:18;7.07;;;6.38;;
44116;SDS011;29781;49.480;8.512;2023-06-24T05:22:43;8.00;;;6.72;;
44116;SDS011;29781;49.480;8.512;2023-06-24T05:25:09;7.60;;;6.57;;
44116;SDS011;29781;49.480;8.512;2023-06-24T05:27:34;7.30;;;5.97;;
44116;SDS011;29781;49.480;8.512;2023-06-24T05:30:00;9.00;;;6.43;;
44116;SDS011;29781;49.480;8.512;2023-06-24T05:32:25;8.07;;;5.90;;
44116;SDS011;29781;49.480;8.512;2023-06-24T05:34:51;10.25;;;6.47;;
44116;SDS011;29781;49.480;8.512;2023-06-24T05:37:16;9.07;;;6.25;;
44116;SDS011;29781;49.480;8.512;2023-06-24T05:39:42;7.05;;;6.30;;
44116;SDS011;29781;49.480;8.512;2023-06-24T05:42:07;6.93;;;6.20;;
44116;SDS011;29781;49.480;8.512;2023-06-24T05:44:33;7.30;;;5.97;;
44116;SDS011;29781;49.480;8.512;2023-06-24T05:46:59;6.60;;;5.90;;
44116;SDS011;29781;49.480;8.512;2023-06-24T05:49:24;6.45;;;5.85;;
44116;SDS011;29781;49.480;8.512;2023-06-24T05:51:50;6.00;;;5.43;;
44116;SDS011;29781;49.480;8.512;2023-06-24T05:54:15;6.60;;;6.00;;
44116;SDS011;29781;49.480;8.512;2023-06-24T05:56:40;6.50;;;5.78;;
44116;SDS011;29781;49.480;8.512;2023-06-24T05:59:06;7.78;;;5.50;;
44116;SDS011;29781;49.480;8.512;2023-06-24T06:01:32;7.05;;;5.60;;
44116;SDS011;29781;49.480;8.512;2023-06-24T06:03:57;6.82;;;5.38;;
44116;SDS011;29781;49.480;8.512;2023-06-24T06:06:23;6.28;;;5.63;;
44116;SDS011;29781;49.480;8.512;2023-06-24T06:08:48;12.57;;;5.53;;
44116;SDS011;29781;49.480;8.512;2023-06-24T06:11:14;7.00;;;5.82;;
44116;SDS011;29781;49.480;8.512;2023-06-24T06:13:39;5.78;;;4.80;;
44116;SDS011;29781;49.480;8.512;2023-06-24T06:16:05;6.30;;;5.45;;
44116;SDS011;29781;49.480;8.512;2023-06-24T06:18:30;5.60;;;4.95;;
44116;SDS011;29781;49.480;8.512;2023-06-24T06:20:56;6.95;;;5.40;;
44116;SDS011;29781;49.480;8.512;2023-06-24T06:23:21;6.03;;;5.03;;
44116;SDS011;29781;49.480;8.512;2023-06-24T06:25:47;5.35;;;4.85;;
44116;SDS011;29781;49.480;8.512;2023-06-24T06:28:12;6.20;;;5.60;;
44116;SDS011;29781;49.480;8.512;2023-06-24T06:30:38;6.57;;;5.50;;
44116;SDS011;29781;49.480;8.512;2023-06-24T06:33:04;7.05;;;6.35;;
44116;SDS011;29781;49.480;8.512;2023-06-24T06:35:29;7.90;;;6.38;;
44116;SDS011;29781;49.480;8.512;2023-06-24T06:37:57;10.27;;;6.90;;
44116;SDS011;29781;49.480;8.512;2023-06-24T06:40:23;8.18;;;7.15;;
44116;SDS011;29781;49.480;8.512;2023-06-24T06:42:48;8.10;;;7.25;;
44116;SDS011;29781;49.480;8.512;2023-06-24T06:45:14;11.68;;;7.82;;
44116;SDS011;29781;49.480;8.512;2023-06-24T06:47:39;8.48;;;7.57;;
44116;SDS011;29781;49.480;8.512;2023-06-24T06:50:05;8.90;;;7.70;;
44116;SDS011;29781;49.480;8.512;2023-06-24T06:52:31;8.90;;;7.55;;
44116;SDS011;29781;49.480;8.512;2023-06-24T06:54:57;10.55;;;7.72;;
44116;SDS011;29781;49.480;8.512;2023-06-24T06:57:23;10.50;;;8.07;;
44116;SDS011;29781;49.480;8.512;2023-06-24T06:59:48;6.80;;;6.15;;
44116;SDS011;29781;49.480;8.512;2023-06-24T07:02:17;7.28;;;6.57;;
44116;SDS011;29781;49.480;8.512;2023-06-24T07:04:43;12.15;;;7.40;;
44116;SDS011;29781;49.480;8.512;2023-06-24T07:07:09;7.18;;;6.18;;
44116;SDS011;29781;49.480;8.512;2023-06-24T07:09:34;6.63;;;6.03;;
44116;SDS011;29781;49.480;8.512;2023-06-24T07:12:01;8.82;;;6.22;;
44116;SDS011;29781;49.480;8.512;2023-06-24T07:14:27;7.70;;;6.50;;
44116;SDS011;29781;49.480;8.512;2023-06-24T07:16:52;10.98;;;6.30;;
44116;SDS011;29781;49.480;8.512;2023-06-24T07:19:18;6.43;;;5.60;;
44116;SDS011;29781;49.480;8.512;2023-06-24T07:21:43;6.63;;;5.90;;
44116;SDS011;29781;49.480;8.512;2023-06-24T07:24:09;6.95;;;5.57;;
44116;SDS011;29781;49.480;8.512;2023-06-24T07:26:34;5.78;;;4.88;;
44116;SDS011;29781;49.480;8.512;2023-06-24T07:29:00;5.43;;;4.65;;
44116;SDS011;29781;49.480;8.512;2023-06-24T07:31:25;6.00;;;5.03;;
44116;SDS011;29781;49.480;8.512;2023-06-24T07:33:51;5.43;;;4.93;;
44116;SDS011;29781;49.480;8.512;2023-06-24T07:36:17;5.75;;;5.25;;
44116;SDS011;29781;49.480;8.512;2023-06-24T07:38:43;7.53;;;5.10;;
44116;SDS011;29781;49.480;8.512;2023-06-24T07:41:09;5.75;;;4.70;;
44116;SDS011;29781;49.480;8.512;2023-06-24T07:43:34;6.03;;;5.22;;
44116;SDS011;29781;49.480;8.512;2023-06-24T07:46:00;5.18;;;4.68;;
44116;SDS011;29781;49.480;8.512;2023-06-24T07:48:25;7.88;;;5.47;;
44116;SDS011;29781;49.480;8.512;2023-06-24T07:50:51;5.88;;;5.38;;
44116;SDS011;29781;49.480;8.512;2023-06-24T07:53:16;5.45;;;4.95;;
44116;SDS011;29781;49.480;8.512;2023-06-24T07:55:42;5.72;;;5.13;;
44116;SDS011;29781;49.480;8.512;2023-06-24T07:58:08;5.50;;;4.97;;
44116;SDS011;29781;49.480;8.512;2023-06-24T08:00:33;6.32;;;5.72;;
44116;SDS011;29781;49.480;8.512;2023-06-24T08:02:59;7.57;;;6.03;;
44116;SDS011;29781;49.480;8.512;2023-06-24T08:05:25;6.72;;;6.00;;
44116;SDS011;29781;49.480;8.512;2023-06-24T08:07:50;5.55;;;5.05;;
44116;SDS011;29781;49.480;8.512;2023-06-24T08:10:16;7.85;;;5.65;;
44116;SDS011;29781;49.480;8.512;2023-06-24T08:12:42;6.38;;;5.07;;
44116;SDS011;29781;49.480;8.512;2023-06-24T08:15:08;6.40;;;5.00;;
44116;SDS011;29781;49.480;8.512;2023-06-24T08:17:34;9.57;;;5.95;;
44116;SDS011;29781;49.480;8.512;2023-06-24T08:20:00;6.22;;;5.03;;
44116;SDS011;29781;49.480;8.512;2023-06-24T08:22:26;6.82;;;4.75;;
44116;SDS011;29781;49.480;8.512;2023-06-24T08:24:51;5.40;;;4.90;;
44116;SDS011;29781;49.480;8.512;2023-06-24T08:27:20;5.70;;;5.10;;
44116;SDS011;29781;49.480;8.512;2023-06-24T08:30:07;5.90;;;5.03;;
44116;SDS011;29781;49.480;8.512;2023-06-24T08:32:51;6.80;;;4.95;;
44116;SDS011;29781;49.480;8.512;2023-06-24T08:35:17;6.70;;;4.80;;
44116;SDS011;29781;49.480;8.512;2023-06-24T08:37:42;5.78;;;5.18;;
44116;SDS011;29781;49.480;8.512;2023-06-24T08:40:08;5.32;;;4.80;;
44116;SDS011;29781;49.480;8.512;2023-06-24T08:42:34;8.95;;;4.90;;
44116;SDS011;29781;49.480;8.512;2023-06-24T08:44:59;6.07;;;4.90;;
44116;SDS011;29781;49.480;8.512;2023-06-24T08:50:50;7.93;;;5.13;;
44116;SDS011;29781;49.480;8.512;2023-06-24T08:53:18;5.80;;;4.57;;
44116;SDS011;29781;49.480;8.512;2023-06-24T08:55:45;5.20;;;4.72;;
44116;SDS011;29781;49.480;8.512;2023-06-24T08:58:13;7.43;;;4.95;;
44116;SDS011;29781;49.480;8.512;2023-06-24T09:00:39;5.20;;;4.80;;
44116;SDS011;29781;49.480;8.512;2023-06-24T09:03:04;7.20;;;4.75;;
44116;SDS011;29781;49.480;8.512;2023-06-24T09:05:30;4.50;;;4.00;;
44116;SDS011;29781;49.480;8.512;2023-06-24T09:07:55;6.30;;;4.43;;
44116;SDS011;29781;49.480;8.512;2023-06-24T09:10:37;5.00;;;4.60;;
44116;SDS011;29781;49.480;8.512;2023-06-24T09:13:03;19.90;;;5.30;;
44116;SDS011;29781;49.480;8.512;2023-06-24T09:15:37;4.70;;;4.30;;
44116;SDS011;29781;49.480;8.512;2023-06-24T09:18:04;4.13;;;3.83;;
44116;SDS011;29781;49.480;8.512;2023-06-24T09:20:30;4.38;;;3.95;;
44116;SDS011;29781;49.480;8.512;2023-06-24T09:22:57;5.55;;;4.53;;
44116;SDS011;29781;49.480;8.512;2023-06-24T09:25:24;5.78;;;4.55;;
44116;SDS011;29781;49.480;8.512;2023-06-24T09:27:49;4.40;;;4.00;;
44116;SDS011;29781;49.480;8.512;2023-06-24T09:30:19;7.93;;;4.82;;
44116;SDS011;29781;49.480;8.512;2023-06-24T09:32:47;4.25;;;3.90;;
44116;SDS011;29781;49.480;8.512;2023-06-24T09:35:13;4.40;;;4.00;;
44116;SDS011;29781;49.480;8.512;2023-06-24T09:37:39;4.50;;;4.10;;
44116;SDS011;29781;49.480;8.512;2023-06-24T09:40:05;4.60;;;3.67;;
44116;SDS011;29781;49.480;8.512;2023-06-24T09:42:33;4.03;;;3.72;;
44116;SDS011;29781;49.480;8.512;2023-06-24T09:45:01;4.45;;;3.85;;
44116;SDS011;29781;49.480;8.512;2023-06-24T09:47:30;5.10;;;3.70;;
44116;SDS011;29781;49.480;8.512;2023-06-24T09:49:56;4.35;;;4.00;;
44116;SDS011;29781;49.480;8.512;2023-06-24T09:52:21;4.65;;;4.05;;
44116;SDS011;29781;49.480;8.512;2023-06-24T09:54:48;5.20;;;4.13;;
44116;SDS011;29781;49.480;8.512;2023-06-24T09:57:17;4.30;;;3.90;;
44116;SDS011;29781;49.480;8.512;2023-06-24T09:59:50;5.03;;;4.25;;
44116;SDS011;29781;49.480;8.512;2023-06-24T10:02:17;6.20;;;4.10;;
44116;SDS011;29781;49.480;8.512;2023-06-24T10:04:43;6.18;;;4.40;;
44116;SDS011;29781;49.480;8.512;2023-06-24T10:07:11;9.02;;;4.38;;
44116;SDS011;29781;49.480;8.512;2023-06-24T10:09:39;4.68;;;4.28;;
44116;SDS011;29781;49.480;8.512;2023-06-24T10:12:05;5.90;;;4.10;;
44116;SDS011;29781;49.480;8.512;2023-06-24T10:14:31;4.40;;;4.00;;
44116;SDS011;29781;49.480;8.512;2023-06-24T10:17:03;4.88;;;4.47;;
44116;SDS011;29781;49.480;8.512;2023-06-24T10:19:29;4.18;;;3.88;;
44116;SDS011;29781;49.480;8.512;2023-06-24T10:21:57;4.85;;;4.35;;
44116;SDS011;29781;49.480;8.512;2023-06-24T10:24:31;4.93;;;4.20;;
44116;SDS011;29781;49.480;8.512;2023-06-24T10:27:13;6.45;;;4.30;;
44116;SDS011;29781;49.480;8.512;2023-06-24T10:29:44;4.47;;;4.10;;
44116;SDS011;29781;49.480;8.512;2023-06-24T10:37:18;4.25;;;3.95;;
44116;SDS011;29781;49.480;8.512;2023-06-24T10:42:44;5.20;;;4.10;;
44116;SDS011;29781;49.480;8.512;2023-06-24T10:50:14;6.22;;;4.03;;
44116;SDS011;29781;49.480;8.512;2023-06-24T10:52:42;6.13;;;4.00;;
44116;SDS011;29781;49.480;8.512;2023-06-24T10:55:09;4.00;;;3.70;;
44116;SDS011;29781;49.480;8.512;2023-06-24T10:57:35;4.38;;;3.97;;
44116;SDS011;29781;49.480;8.512;2023-06-24T11:00:01;3.95;;;3.45;;
44116;SDS011;29781;49.480;8.512;2023-06-24T11:02:28;4.80;;;4.30;;
44116;SDS011;29781;49.480;8.512;2023-06-24T11:04:54;4.53;;;3.90;;
44116;SDS011;29781;49.480;8.512;2023-06-24T11:07:22;5.22;;;3.50;;
44116;SDS011;29781;49.480;8.512;2023-06-24T11:12:15;5.10;;;3.47;;
44116;SDS011;29781;49.480;8.512;2023-06-24T11:14:41;3.22;;;3.03;;
44116;SDS011;29781;49.480;8.512;2023-06-24T11:17:07;3.20;;;2.90;;
44116;SDS011;29781;49.480;8.512;2023-06-24T11:19:32;3.78;;;3.10;;
44116;SDS011;29781;49.480;8.512;2023-06-24T11:21:59;3.30;;;3.00;;
44116;SDS011;29781;49.480;8.512;2023-06-24T11:24:26;3.53;;;3.15;;
44116;SDS011;29781;49.480;8.512;2023-06-24T11:26:54;4.78;;;3.30;;
44116;SDS011;29781;49.480;8.512;2023-06-24T11:29:20;5.05;;;4.32;;
44116;SDS011;29781;49.480;8.512;2023-06-24T11:31:46;4.43;;;3.10;;
44116;SDS011;29781;49.480;8.512;2023-06-24T11:34:12;3.95;;;3.53;;
44116;SDS011;29781;49.480;8.512;2023-06-24T11:36:38;3.60;;;3.30;;
44116;SDS011;29781;49.480;8.512;2023-06-24T11:39:03;7.18;;;3.88;;
44116;SDS011;29781;49.480;8.512;2023-06-24T11:41:29;3.90;;;3.50;;
44116;SDS011;29781;49.480;8.512;2023-06-24T11:43:57;3.92;;;3.53;;
44116;SDS011;29781;49.480;8.512;2023-06-24T11:46:27;4.03;;;3.63;;
44116;SDS011;29781;49.480;8.512;2023-06-24T11:49:02;4.23;;;3.50;;
44116;SDS011;29781;49.480;8.512;2023-06-24T11:51:29;3.47;;;3.10;;
44116;SDS011;29781;49.480;8.512;2023-06-24T11:53:58;3.78;;;3.30;;
44116;SDS011;29781;49.480;8.512;2023-06-24T11:56:38;4.10;;;3.70;;
44116;SDS011;29781;49.480;8.512;2023-06-24T11:59:04;3.38;;;3.08;;
44116;SDS011;29781;49.480;8.512;2023-06-24T12:01:31;4.13;;;3.72;;
44116;SDS011;29781;49.480;8.512;2023-06-24T12:03:59;5.85;;;3.17;;
44116;SDS011;29781;49.480;8.512;2023-06-24T12:06:26;3.15;;;2.85;;
44116;SDS011;29781;49.480;8.512;2023-06-24T12:08:51;3.35;;;3.15;;
44116;SDS011;29781;49.480;8.512;2023-06-24T12:11:17;4.05;;;3.70;;
44116;SDS011;29781;49.480;8.512;2023-06-24T12:13:42;3.95;;;3.60;;
44116;SDS011;29781;49.480;8.512;2023-06-24T12:16:08;3.75;;;3.45;;
44116;SDS011;29781;49.480;8.512;2023-06-24T12:18:33;4.75;;;3.38;;
44116;SDS011;29781;49.480;8.512;2023-06-24T12:20:59;4.57;;;3.20;;
44116;SDS011;29781;49.480;8.512;2023-06-24T12:23:25;4.13;;;3.53;;
44116;SDS011;29781;49.480;8.512;2023-06-24T12:25:50;4.03;;;3.30;;
44116;SDS011;29781;49.480;8.512;2023-06-24T12:28:16;3.63;;;3.33;;
44116;SDS011;29781;49.480;8.512;2023-06-24T12:30:41;3.92;;;3.47;;
44116;SDS011;29781;49.480;8.512;2023-06-24T12:33:07;4.05;;;3.35;;
44116;SDS011;29781;49.480;8.512;2023-06-24T12:35:33;3.75;;;3.45;;
44116;SDS011;29781;49.480;8.512;2023-06-24T12:37:59;3.65;;;3.35;;
44116;SDS011;29781;49.480;8.512;2023-06-24T12:40:24;3.58;;;3.28;;
44116;SDS011;29781;49.480;8.512;2023-06-24T12:42:50;4.20;;;3.50;;
44116;SDS011;29781;49.480;8.512;2023-06-24T12:45:15;5.03;;;3.67;;
44116;SDS011;29781;49.480;8.512;2023-06-24T12:47:41;4.05;;;3.75;;
44116;SDS011;29781;49.480;8.512;2023-06-24T12:50:07;3.67;;;3.20;;
44116;SDS011;29781;49.480;8.512;2023-06-24T12:52:33;4.75;;;3.70;;
44116;SDS011;29781;49.480;8.512;2023-06-24T12:54:59;3.47;;;3.17;;
44116;SDS011;29781;49.480;8.512;2023-06-24T12:57:24;3.67;;;3.38;;
44116;SDS011;29781;49.480;8.512;2023-06-24T12:59:50;3.78;;;3.47;;
44116;SDS011;29781;49.480;8.512;2023-06-24T13:02:15;4.13;;;3.72;;
44116;SDS011;29781;49.480;8.512;2023-06-24T13:04:41;4.22;;;3.45;;
44116;SDS011;29781;49.480;8.512;2023-06-24T13:07:06;4.18;;;3.80;;
44116;SDS011;29781;49.480;8.512;2023-06-24T13:09:34;3.53;;;3.25;;
44116;SDS011;29781;49.480;8.512;2023-06-24T13:12:00;7.15;;;3.55;;
44116;SDS011;29781;49.480;8.512;2023-06-24T13:14:25;3.95;;;3.55;;
44116;SDS011;29781;49.480;8.512;2023-06-24T13:16:53;3.83;;;3.53;;
44116;SDS011;29781;49.480;8.512;2023-06-24T13:19:19;3.47;;;3.20;;
44116;SDS011;29781;49.480;8.512;2023-06-24T13:21:44;4.07;;;3.75;;
44116;SDS011;29781;49.480;8.512;2023-06-24T13:24:10;6.82;;;3.88;;
44116;SDS011;29781;49.480;8.512;2023-06-24T13:26:37;5.28;;;3.88;;
44116;SDS011;29781;49.480;8.512;2023-06-24T13:29:03;4.20;;;3.85;;
44116;SDS011;29781;49.480;8.512;2023-06-24T13:31:28;4.30;;;3.90;;
44116;SDS011;29781;49.480;8.512;2023-06-24T13:33:54;5.68;;;3.90;;
44116;SDS011;29781;49.480;8.512;2023-06-24T13:36:32;4.28;;;3.90;;
44116;SDS011;29781;49.480;8.512;2023-06-24T13:39:03;6.97;;;3.80;;
44116;SDS011;29781;49.480;8.512;2023-06-24T13:41:29;4.32;;;3.92;;
44116;SDS011;29781;49.480;8.512;2023-06-24T13:43:57;3.92;;;3.47;;
44116;SDS011;29781;49.480;8.512;2023-06-24T13:46:27;4.20;;;3.73;;
44116;SDS011;29781;49.480;8.512;2023-06-24T13:48:53;4.03;;;3.60;;
44116;SDS011;29781;49.480;8.512;2023-06-24T13:51:19;3.75;;;3.45;;
44116;SDS011;29781;49.480;8.512;2023-06-24T13:53:45;3.60;;;3.30;;
44116;SDS011;29781;49.480;8.512;2023-06-24T13:56:12;4.63;;;3.83;;
44116;SDS011;29781;49.480;8.512;2023-06-24T13:58:38;4.90;;;3.70;;
44116;SDS011;29781;49.480;8.512;2023-06-24T14:01:04;6.00;;;3.42;;
44116;SDS011;29781;49.480;8.512;2023-06-24T14:03:29;4.78;;;3.90;;
44116;SDS011;29781;49.480;8.512;2023-06-24T14:05:55;5.55;;;4.20;;
44116;SDS011;29781;49.480;8.512;2023-06-24T14:08:21;4.95;;;4.43;;
44116;SDS011;29781;49.480;8.512;2023-06-24T14:10:47;6.20;;;4.40;;
44116;SDS011;29781;49.480;8.512;2023-06-24T14:13:13;4.53;;;4.13;;
44116;SDS011;29781;49.480;8.512;2023-06-24T14:15:39;6.13;;;3.92;;
44116;SDS011;29781;49.480;8.512;2023-06-24T14:18:06;5.40;;;4.90;;
44116;SDS011;29781;49.480;8.512;2023-06-24T14:20:31;5.28;;;4.10;;
44116;SDS011;29781;49.480;8.512;2023-06-24T14:22:57;5.57;;;4.20;;
44116;SDS011;29781;49.480;8.512;2023-06-24T14:25:22;4.38;;;3.97;;
44116;SDS011;29781;49.480;8.512;2023-06-24T14:27:49;5.35;;;4.10;;
44116;SDS011;29781;49.480;8.512;2023-06-24T14:30:15;4.50;;;4.10;;
44116;SDS011;29781;49.480;8.512;2023-06-24T14:32:40;4.32;;;4.03;;
44116;SDS011;29781;49.480;8.512;2023-06-24T14:35:06;5.43;;;4.28;;
44116;SDS011;29781;49.480;8.512;2023-06-24T14:37:32;5.70;;;3.83;;
44116;SDS011;29781;49.480;8.512;2023-06-24T14:39:58;4.85;;;3.83;;
44116;SDS011;29781;49.480;8.512;2023-06-24T14:42:23;5.07;;;4.00;;
44116;SDS011;29781;49.480;8.512;2023-06-24T14:44:49;5.75;;;4.05;;
44116;SDS011;29781;49.480;8.512;2023-06-24T14:47:14;5.00;;;3.75;;
44116;SDS011;29781;49.480;8.512;2023-06-24T14:49:40;5.38;;;3.95;;
44116;SDS011;29781;49.480;8.512;2023-06-24T14:52:05;4.18;;;3.88;;
44116;SDS011;29781;49.480;8.512;2023-06-24T14:54:31;4.63;;;4.20;;
44116;SDS011;29781;49.480;8.512;2023-06-24T14:56:57;4.03;;;3.72;;
44116;SDS011;29781;49.480;8.512;2023-06-24T14:59:22;6.57;;;4.05;;
44116;SDS011;29781;49.480;8.512;2023-06-24T15:01:48;6.70;;;4.20;;
44116;SDS011;29781;49.480;8.512;2023-06-24T15:04:13;5.32;;;4.07;;
44116;SDS011;29781;49.480;8.512;2023-06-24T15:06:39;6.32;;;3.90;;
44116;SDS011;29781;49.480;8.512;2023-06-24T15:09:04;4.28;;;3.88;;